CYNL

SPECI CYNL 071631Z AUTO 05006KT 4SM VV010 M10/M14 A2947 RMK AO1 SLP028
SPECI
LOCATION
CYNL
DATE - TIME
071631Z
WIND
050 TRUE @ 6 KNOTS
VISIBILITY
4SM
RUNWAY VISUAL RANGE
NOT REPORTED
WEATHER
CLOUDINESS
TEMP / DEWPOINT
-10 ºC / -14 ºC
ALTIMETER
29.47 in. Hg
RECENT WEATHER
NOT REPORTED
WIND SHEAR
NOT REPORTED
REMARKS
RMK AO1 SLP028
SEA LEVEL PRESSURE: hPa

CYNL

SPECI CYNL 071625Z AUTO 04007KT 3SM VV008 M10/M14 A2947 RMK AO1 SLP027
SPECI
LOCATION
CYNL
DATE - TIME
071625Z
WIND
040 TRUE @ 7 KNOTS
VISIBILITY
3SM
RUNWAY VISUAL RANGE
NOT REPORTED
WEATHER
CLOUDINESS
TEMP / DEWPOINT
-10 ºC / -14 ºC
ALTIMETER
29.47 in. Hg
RECENT WEATHER
NOT REPORTED
WIND SHEAR
NOT REPORTED
REMARKS
RMK AO1 SLP027
SEA LEVEL PRESSURE: hPa

CYNL

SPECI CYNL 071614Z AUTO 05008KT 2SM VV008 M10/M14 A2947 RMK AO1 SLP028
SPECI
LOCATION
CYNL
DATE - TIME
071614Z
WIND
050 TRUE @ 8 KNOTS
VISIBILITY
2SM
RUNWAY VISUAL RANGE
NOT REPORTED
WEATHER
CLOUDINESS
TEMP / DEWPOINT
-10 ºC / -14 ºC
ALTIMETER
29.47 in. Hg
RECENT WEATHER
NOT REPORTED
WIND SHEAR
NOT REPORTED
REMARKS
RMK AO1 SLP028
SEA LEVEL PRESSURE: hPa

Your time UTC time
 
 
Weather data provided by AXYS Technologies Inc., www.axystechnologies.com
 
Station History